Time;durP1;ratioP1;P1;durP2;ratioP2;P2;SDS_P1;SDS_P2;PMS_P1;PMS_P2;Temp;Humidity;BMP_temperature;BMP_pressure;BME280_temperature;BME280_humidity;BME280_pressure;Samples;Min_cycle;Max_cycle;Signal;HPM_P1;HPM_P2
2022/12/28 00:00:49;;;;;;;22.00;12.75;;;;;;;;;;5035857;28;20141;-68
2022/12/28 00:03:15;;;;;;;21.77;11.48;;;;;;;;;;5035896;28;20037;-67
2022/12/28 00:05:40;;;;;;;19.55;10.90;;;;;;;;;;5038127;28;20053;-68
2022/12/28 00:08:05;;;;;;;20.48;10.40;;;;;;;;;;5055586;28;20037;-68
2022/12/28 00:10:31;;;;;;;17.88;9.60;;;;;;;;;;5055595;28;20468;-68
2022/12/28 00:12:56;;;;;;;18.30;10.43;;;;;;;;;;5037565;28;20048;-68
2022/12/28 00:15:21;;;;;;;19.23;10.00;;;;;;;;;;5054194;28;20045;-68
2022/12/28 00:17:46;;;;;;;19.45;9.85;;;;;;;;;;5055443;28;20037;-67
2022/12/28 00:20:12;;;;;;;13.98;9.50;;;;;;;;;;5037374;28;20055;-67
2022/12/28 00:22:37;;;;;;;16.92;9.85;;;;;;;;;;5055532;28;20059;-67
2022/12/28 00:25:03;;;;;;;14.52;9.27;;;;;;;;;;5055777;28;20358;-67
2022/12/28 00:27:28;;;;;;;15.15;8.63;;;;;;;;;;5055168;28;20043;-68
2022/12/28 00:29:54;;;;;;;17.13;9.32;;;;;;;;;;5055219;28;20467;-68
2022/12/28 00:32:20;;;;;;;17.98;9.25;;;;;;;;;;5037416;28;20040;-69
2022/12/28 00:34:45;;;;;;;16.92;9.40;;;;;;;;;;5055092;28;20037;-70
2022/12/28 00:37:11;;;;;;;18.15;9.68;;;;;;;;;;5055090;28;20128;-69
2022/12/28 00:39:36;;;;;;;17.38;9.25;;;;;;;;;;5054728;28;20049;-69
2022/12/28 00:42:01;;;;;;;14.48;8.50;;;;;;;;;;5054977;28;20025;-68
2022/12/28 00:44:28;;;;;;;16.60;8.98;;;;;;;;;;5037304;28;20033;-68
2022/12/28 00:46:54;;;;;;;14.38;7.88;;;;;;;;;;5054473;28;20039;-69
2022/12/28 00:49:19;;;;;;;13.13;7.88;;;;;;;;;;5054767;28;20076;-69
2022/12/28 00:51:44;;;;;;;13.75;7.93;;;;;;;;;;5036692;28;20033;-68
2022/12/28 00:54:11;;;;;;;12.38;7.70;;;;;;;;;;5054473;28;20033;-68
2022/12/28 00:56:38;;;;;;;15.07;8.63;;;;;;;;;;5054582;28;20048;-69
2022/12/28 00:59:04;;;;;;;16.65;8.43;;;;;;;;;;5054569;28;20455;-68
2022/12/28 01:01:29;;;;;;;16.42;8.15;;;;;;;;;;5036627;28;20116;-70
2022/12/28 01:03:56;;;;;;;16.48;8.13;;;;;;;;;;5036596;28;20090;-68
2022/12/28 01:06:24;;;;;;;14.48;8.45;;;;;;;;;;5054321;28;20151;-68
2022/12/28 01:08:50;;;;;;;15.25;8.88;;;;;;;;;;5036592;28;20041;-68
2022/12/28 01:11:22;;;;;;;17.38;9.27;;;;;;;;;;5054454;28;20029;-69
2022/12/28 01:13:48;;;;;;;14.98;8.80;;;;;;;;;;5054242;28;20065;-68
2022/12/28 01:16:16;;;;;;;15.70;8.63;;;;;;;;;;5054336;28;20029;-68
2022/12/28 01:18:42;;;;;;;13.65;8.43;;;;;;;;;;5036383;28;20499;-68
2022/12/28 01:21:12;;;;;;;14.85;8.35;;;;;;;;;;5054161;28;20049;-68
2022/12/28 01:23:40;;;;;;;14.88;9.13;;;;;;;;;;5036321;28;20039;-68
2022/12/28 01:26:06;;;;;;;14.55;8.93;;;;;;;;;;5053865;28;20103;-68
2022/12/28 01:28:31;;;;;;;14.50;8.95;;;;;;;;;;5054259;28;20052;-68
2022/12/28 01:31:01;;;;;;;12.00;7.57;;;;;;;;;;5036005;28;20036;-68
2022/12/28 01:33:26;;;;;;;10.73;7.35;;;;;;;;;;5053903;28;20056;-68
2022/12/28 01:35:51;;;;;;;12.80;7.63;;;;;;;;;;5054076;28;20025;-68
2022/12/28 01:38:17;;;;;;;15.48;7.57;;;;;;;;;;5053880;28;20037;-68
2022/12/28 01:40:42;;;;;;;13.63;8.13;;;;;;;;;;5053948;28;20041;-68
2022/12/28 01:43:12;;;;;;;12.50;8.30;;;;;;;;;;5035931;28;20112;-68
2022/12/28 01:45:38;;;;;;;12.55;8.60;;;;;;;;;;5053864;28;20083;-69
2022/12/28 01:48:03;;;;;;;16.88;9.43;;;;;;;;;;5053871;28;20477;-68
2022/12/28 01:50:30;;;;;;;14.70;8.90;;;;;;;;;;5053650;28;20067;-69
2022/12/28 01:53:02;;;;;;;16.65;9.13;;;;;;;;;;5053779;28;20033;-69
2022/12/28 01:55:30;;;;;;;14.43;8.77;;;;;;;;;;5053844;28;20036;-69
2022/12/28 01:58:04;;;;;;;15.25;8.88;;;;;;;;;;5035848;28;20040;-69
2022/12/28 02:00:30;;;;;;;15.50;8.75;;;;;;;;;;5035341;28;20048;-68
2022/12/28 02:02:55;;;;;;;14.43;8.73;;;;;;;;;;5053764;28;20377;-68
2022/12/28 02:05:23;;;;;;;15.15;9.23;;;;;;;;;;5053750;28;20086;-69
2022/12/28 02:07:54;;;;;;;16.08;9.50;;;;;;;;;;5035746;28;20044;-68
2022/12/28 02:10:20;;;;;;;13.35;8.65;;;;;;;;;;5036069;28;20041;-67
2022/12/28 02:12:46;;;;;;;14.70;9.40;;;;;;;;;;5035551;28;20037;-68
2022/12/28 02:15:11;;;;;;;15.52;9.60;;;;;;;;;;5053778;28;20384;-68
2022/12/28 02:17:36;;;;;;;15.35;9.30;;;;;;;;;;5053389;28;20087;-67
2022/12/28 02:20:04;;;;;;;16.92;9.80;;;;;;;;;;5035346;28;20175;-68
2022/12/28 02:23:08;;;;;;;14.60;9.38;;;;;;;;;;5035599;28;20037;-68
2022/12/28 02:25:36;;;;;;;14.93;9.05;;;;;;;;;;4953355;29;20043;-68
2022/12/28 02:28:23;;;;;;;17.48;9.57;;;;;;;;;;4953365;29;20087;-68
2022/12/28 02:30:54;;;;;;;18.48;10.05;;;;;;;;;;5005408;28;20068;-68
2022/12/28 02:33:19;;;;;;;;;;;;;;;;;;5053723;28;20041;-68
2022/12/28 02:35:52;;;;;;;13.27;8.67;;;;;;;;;;5053006;28;20007;-68
2022/12/28 02:38:20;;;;;;;16.40;9.13;;;;;;;;;;5037112;28;20068;-68
2022/12/28 02:40:53;;;;;;;15.18;8.38;;;;;;;;;;5039185;28;20041;-68
2022/12/28 02:43:21;;;;;;;15.15;8.93;;;;;;;;;;5039282;28;20082;-68
2022/12/28 02:51:28;;;;;;;11.20;8.07;;;;;;;;;;5057148;28;20052;-68
2022/12/28 02:56:05;;;;;;;13.02;8.38;;;;;;;;;;5057031;28;20029;-68
2022/12/28 02:57:03;;;;;;;12.30;8.48;;;;;;;;;;5056775;28;20037;-67
2022/12/28 02:59:46;;;;;;;11.82;8.07;;;;;;;;;;5056849;28;20064;-67
2022/12/28 03:02:32;;;;;;;12.73;8.55;;;;;;;;;;5022790;28;20037;-67
2022/12/28 03:08:13;;;;;;;15.45;9.15;;;;;;;;;;5056820;28;20591;-67
2022/12/28 03:08:21;;;;;;;15.52;8.63;;;;;;;;;;5038509;28;20128;-67
2022/12/28 03:10:51;;;;;;;15.75;8.98;;;;;;;;;;5038780;28;20131;-67
2022/12/28 03:16:07;;;;;;;15.18;8.93;;;;;;;;;;5056660;28;20403;-67
2022/12/28 03:32:35;;;;;;;13.43;8.48;;;;;;;;;;5038587;28;20043;-67
2022/12/28 03:35:02;;;;;;;15.35;8.80;;;;;;;;;;5038421;28;20033;-67
2022/12/28 03:37:33;;;;;;;13.15;8.50;;;;;;;;;;5038525;28;20432;-67
2022/12/28 03:40:18;;;;;;;11.23;7.97;;;;;;;;;;5038202;28;20060;-67
2022/12/28 03:45:50;;;;;;;12.52;7.82;;;;;;;;;;5038017;28;20036;-67
2022/12/28 03:48:18;;;;;;;10.73;7.78;;;;;;;;;;5055443;28;20421;-67
2022/12/28 03:50:45;;;;;;;12.05;7.88;;;;;;;;;;5038100;28;20029;-67
2022/12/28 03:53:15;;;;;;;13.13;8.03;;;;;;;;;;5038134;28;20525;-67
2022/12/28 03:55:42;;;;;;;10.93;7.53;;;;;;;;;;5038184;28;20330;-66
2022/12/28 03:58:07;;;;;;;11.88;8.00;;;;;;;;;;5037942;28;20025;-68
2022/12/28 04:00:33;;;;;;;13.48;7.88;;;;;;;;;;5037736;28;20033;-68
2022/12/28 04:02:58;;;;;;;11.52;7.63;;;;;;;;;;5037413;28;20112;-72
2022/12/28 04:05:24;;;;;;;11.57;7.78;;;;;;;;;;5037694;28;20044;-71
2022/12/28 04:07:49;;;;;;;10.15;7.60;;;;;;;;;;5037675;28;20033;-72
2022/12/28 04:10:14;;;;;;;12.90;7.82;;;;;;;;;;5021177;28;20048;-72
2022/12/28 04:12:40;;;;;;;12.95;8.02;;;;;;;;;;5037644;28;20037;-71
2022/12/28 04:15:21;;;;;;;12.30;8.60;;;;;;;;;;5055459;28;20091;-71
2022/12/28 04:17:46;;;;;;;10.88;8.32;;;;;;;;;;5037685;28;20492;-71
2022/12/28 04:20:12;;;;;;;11.85;8.40;;;;;;;;;;5055295;28;20037;-71
2022/12/28 04:22:37;;;;;;;12.25;7.82;;;;;;;;;;5037443;28;20393;-71
2022/12/28 04:25:04;;;;;;;12.90;8.27;;;;;;;;;;5055043;28;20079;-71
2022/12/28 04:27:30;;;;;;;14.20;8.05;;;;;;;;;;5037489;28;20060;-71
2022/12/28 04:30:01;;;;;;;;;;;;;;;;;;5037906;28;20373;-72
2022/12/28 04:32:29;;;;;;;13.57;7.90;;;;;;;;;;5021147;28;19920;-71
2022/12/28 04:34:54;;;;;;;14.70;8.77;;;;;;;;;;5037245;28;20389;-71
2022/12/28 04:37:19;;;;;;;12.75;10.75;;;;;;;;;;5037197;28;20037;-72
2022/12/28 04:39:46;;;;;;;24.58;20.73;;;;;;;;;;5037052;28;20072;-71
2022/12/28 04:42:11;;;;;;;22.55;15.88;;;;;;;;;;5055112;28;20060;-71
2022/12/28 04:44:37;;;;;;;24.67;20.63;;;;;;;;;;5036865;28;20033;-71
2022/12/28 04:47:02;;;;;;;17.63;15.85;;;;;;;;;;5054791;28;20071;-71
2022/12/28 04:49:27;;;;;;;14.98;12.63;;;;;;;;;;5054963;28;20059;-71
2022/12/28 04:51:53;;;;;;;15.45;13.40;;;;;;;;;;5054878;28;20463;-71
2022/12/28 04:54:18;;;;;;;16.00;10.70;;;;;;;;;;5054707;28;20044;-71
2022/12/28 04:56:43;;;;;;;18.88;14.25;;;;;;;;;;5054762;28;20063;-71
2022/12/28 04:59:09;;;;;;;19.63;15.82;;;;;;;;;;5036691;28;20141;-71
2022/12/28 05:01:34;;;;;;;12.68;10.13;;;;;;;;;;5053769;28;20041;-71
2022/12/28 05:03:59;;;;;;;13.82;10.30;;;;;;;;;;5054673;28;20100;-71
2022/12/28 05:06:26;;;;;;;10.93;8.10;;;;;;;;;;5045717;28;20072;-71
2022/12/28 05:08:53;;;;;;;10.38;7.97;;;;;;;;;;5034480;28;20034;-71
2022/12/28 05:11:20;;;;;;;15.93;8.07;;;;;;;;;;5034513;28;20053;-71
2022/12/28 05:13:46;;;;;;;12.68;7.40;;;;;;;;;;5034371;28;20068;-71
2022/12/28 05:16:13;;;;;;;10.13;6.57;;;;;;;;;;5034356;28;20124;-71
2022/12/28 05:18:38;;;;;;;9.02;6.55;;;;;;;;;;5034323;28;20056;-71
2022/12/28 05:21:05;;;;;;;10.82;6.88;;;;;;;;;;5034243;28;20029;-71
2022/12/28 05:23:31;;;;;;;9.10;6.60;;;;;;;;;;5016588;28;20041;-71
2022/12/28 05:25:56;;;;;;;13.10;7.13;;;;;;;;;;5034382;28;20038;-72
2022/12/28 05:28:22;;;;;;;10.63;7.00;;;;;;;;;;5034271;28;20037;-72
2022/12/28 05:30:48;;;;;;;7.95;6.32;;;;;;;;;;5033725;28;20434;-72
2022/12/28 05:33:13;;;;;;;16.83;10.57;;;;;;;;;;5034124;28;20036;-71
2022/12/28 05:35:38;;;;;;;20.88;13.07;;;;;;;;;;5034135;28;20042;-71
2022/12/28 05:38:04;;;;;;;23.63;13.95;;;;;;;;;;5033930;28;20041;-72
2022/12/28 05:40:29;;;;;;;20.35;11.18;;;;;;;;;;5034052;28;20026;-72
2022/12/28 05:42:54;;;;;;;14.68;8.13;;;;;;;;;;5034082;28;20049;-72
2022/12/28 05:45:20;;;;;;;12.98;7.03;;;;;;;;;;5016324;28;20034;-72
2022/12/28 05:47:45;;;;;;;9.82;6.43;;;;;;;;;;5033714;28;20390;-72
2022/12/28 05:50:10;;;;;;;10.35;6.35;;;;;;;;;;5033739;28;20124;-72
2022/12/28 05:52:36;;;;;;;7.43;5.50;;;;;;;;;;5033845;28;20096;-71
2022/12/28 05:55:01;;;;;;;7.32;5.50;;;;;;;;;;5033884;28;20124;-71
2022/12/28 05:57:27;;;;;;;11.85;7.05;;;;;;;;;;5033118;28;20059;-68
2022/12/28 05:59:52;;;;;;;13.15;8.18;;;;;;;;;;5033771;28;20495;-68
2022/12/28 06:02:18;;;;;;;7.88;6.00;;;;;;;;;;5033623;28;20033;-69
2022/12/28 06:04:43;;;;;;;7.15;5.35;;;;;;;;;;5033802;28;20034;-69
2022/12/28 06:07:09;;;;;;;7.55;5.40;;;;;;;;;;5033487;28;20043;-69
2022/12/28 06:09:34;;;;;;;9.80;5.40;;;;;;;;;;5032886;28;20060;-69
2022/12/28 06:12:00;;;;;;;12.77;6.72;;;;;;;;;;5034924;28;20511;-71
2022/12/28 06:14:25;;;;;;;55.88;31.00;;;;;;;;;;5037555;28;20045;-70
2022/12/28 06:16:51;;;;;;;36.90;19.92;;;;;;;;;;5036837;28;20069;-70
2022/12/28 06:19:17;;;;;;;32.78;18.77;;;;;;;;;;5036082;28;20171;-70
2022/12/28 06:21:42;;;;;;;30.55;17.45;;;;;;;;;;5019049;28;20037;-69
2022/12/28 06:24:08;;;;;;;25.50;15.60;;;;;;;;;;5036797;28;20108;-70
2022/12/28 06:26:35;;;;;;;13.60;9.05;;;;;;;;;;5036615;28;20177;-70
2022/12/28 06:29:00;;;;;;;10.80;7.75;;;;;;;;;;5036428;28;20041;-69
2022/12/28 06:31:28;;;;;;;12.85;7.30;;;;;;;;;;5038010;28;20033;-69
2022/12/28 06:33:55;;;;;;;8.13;6.88;;;;;;;;;;5055819;28;20033;-69
2022/12/28 06:36:21;;;;;;;7.25;6.35;;;;;;;;;;5054880;28;20037;-69
2022/12/28 06:38:47;;;;;;;10.05;6.47;;;;;;;;;;5054199;28;20029;-69
2022/12/28 06:41:13;;;;;;;7.88;5.55;;;;;;;;;;5053900;28;20048;-69
2022/12/28 06:43:39;;;;;;;9.63;5.78;;;;;;;;;;5054940;28;20396;-69
2022/12/28 06:46:05;;;;;;;8.23;6.20;;;;;;;;;;5055930;28;20074;-69
2022/12/28 06:48:31;;;;;;;9.77;6.20;;;;;;;;;;5055793;28;20510;-69
2022/12/28 06:50:57;;;;;;;11.38;6.95;;;;;;;;;;5055814;28;20025;-69
2022/12/28 06:53:23;;;;;;;12.13;6.85;;;;;;;;;;5055580;28;20048;-69
2022/12/28 06:55:52;;;;;;;14.20;5.97;;;;;;;;;;5055756;28;20056;-69
2022/12/28 06:58:18;;;;;;;9.77;6.50;;;;;;;;;;5055363;28;20029;-69
2022/12/28 07:00:43;;;;;;;16.17;8.57;;;;;;;;;;5055876;28;20047;-69
2022/12/28 07:03:08;;;;;;;13.75;8.45;;;;;;;;;;5055762;28;20380;-69
2022/12/28 07:05:33;;;;;;;19.30;10.20;;;;;;;;;;5057009;28;20029;-69
2022/12/28 07:07:59;;;;;;;19.33;10.55;;;;;;;;;;5075206;28;20135;-69
2022/12/28 07:10:24;;;;;;;17.88;9.35;;;;;;;;;;5057849;28;20044;-69
2022/12/28 07:12:56;;;;;;;19.33;9.45;;;;;;;;;;5075261;28;20036;-69
2022/12/28 07:15:21;;;;;;;18.30;9.82;;;;;;;;;;5075334;28;20032;-69
2022/12/28 07:17:47;;;;;;;16.10;9.23;;;;;;;;;;5075618;28;20055;-69
2022/12/28 07:20:12;;;;;;;14.07;9.60;;;;;;;;;;5075276;28;20037;-69
2022/12/28 07:22:37;;;;;;;14.73;9.95;;;;;;;;;;5075315;28;20099;-69
2022/12/28 07:25:03;;;;;;;17.80;9.35;;;;;;;;;;5074492;28;20098;-69
2022/12/28 07:27:28;;;;;;;11.23;7.60;;;;;;;;;;5057311;28;20090;-69
2022/12/28 07:29:53;;;;;;;11.18;6.30;;;;;;;;;;5074848;28;20462;-69
2022/12/28 07:32:18;;;;;;;10.77;6.35;;;;;;;;;;5057090;28;20392;-69
2022/12/28 07:34:44;;;;;;;13.40;5.80;;;;;;;;;;5074792;28;20039;-69
2022/12/28 07:37:09;;;;;;;9.85;6.30;;;;;;;;;;5074950;28;20464;-69
2022/12/28 07:39:34;;;;;;;8.73;5.72;;;;;;;;;;5074800;28;20043;-69
2022/12/28 07:42:00;;;;;;;8.63;5.35;;;;;;;;;;5075928;28;20422;-69
2022/12/28 07:44:25;;;;;;;12.25;6.03;;;;;;;;;;5075839;28;20037;-69
2022/12/28 07:46:50;;;;;;;10.32;6.25;;;;;;;;;;5075579;28;20037;-69
2022/12/28 07:49:16;;;;;;;12.13;6.72;;;;;;;;;;5075846;28;20464;-69
2022/12/28 07:51:41;;;;;;;15.00;9.00;;;;;;;;;;5075767;28;20047;-69
2022/12/28 07:54:06;;;;;;;16.92;11.02;;;;;;;;;;5075438;28;20039;-69
2022/12/28 07:56:32;;;;;;;16.60;11.13;;;;;;;;;;5075609;28;20389;-69
2022/12/28 07:58:58;;;;;;;16.17;10.52;;;;;;;;;;5075515;28;20036;-69
2022/12/28 08:01:25;;;;;;;15.43;9.82;;;;;;;;;;5075539;28;20114;-69
2022/12/28 08:03:54;;;;;;;14.93;10.02;;;;;;;;;;5075518;28;20076;-69
2022/12/28 08:06:21;;;;;;;14.50;9.98;;;;;;;;;;5074889;28;20086;-69
2022/12/28 08:08:48;;;;;;;17.60;11.15;;;;;;;;;;5056575;28;20185;-69
2022/12/28 08:11:14;;;;;;;19.42;11.77;;;;;;;;;;5074324;28;20037;-69
2022/12/28 08:13:41;;;;;;;18.50;12.05;;;;;;;;;;5074449;28;20140;-69
2022/12/28 08:16:07;;;;;;;25.83;13.85;;;;;;;;;;5074289;28;20119;-69
2022/12/28 08:18:32;;;;;;;34.67;16.30;;;;;;;;;;5074469;28;20131;-69
2022/12/28 08:21:02;;;;;;;40.30;17.70;;;;;;;;;;5074153;28;20435;-69
2022/12/28 08:23:28;;;;;;;41.53;18.90;;;;;;;;;;5074220;28;20024;-69
2022/12/28 08:25:54;;;;;;;54.95;22.30;;;;;;;;;;5056328;28;20028;-69
2022/12/28 08:28:19;;;;;;;60.08;23.00;;;;;;;;;;5074048;28;20123;-69
2022/12/28 08:30:44;;;;;;;50.50;22.27;;;;;;;;;;5056224;28;20127;-69
2022/12/28 08:33:10;;;;;;;47.05;20.55;;;;;;;;;;5074048;28;20116;-69
2022/12/28 08:35:35;;;;;;;43.10;18.83;;;;;;;;;;5072845;28;20036;-69
2022/12/28 08:38:00;;;;;;;41.72;18.83;;;;;;;;;;5074003;28;20048;-69
2022/12/28 08:40:28;;;;;;;33.40;18.23;;;;;;;;;;5073886;28;20037;-69
2022/12/28 08:43:00;;;;;;;37.30;20.65;;;;;;;;;;5073840;28;20032;-69
2022/12/28 08:45:25;;;;;;;29.65;17.63;;;;;;;;;;5073890;28;20036;-69
2022/12/28 08:47:50;;;;;;;29.08;16.05;;;;;;;;;;5073797;28;20472;-69
2022/12/28 08:50:16;;;;;;;37.25;16.83;;;;;;;;;;5073727;28;20033;-69
2022/12/28 08:52:41;;;;;;;47.42;20.23;;;;;;;;;;5073781;28;20119;-69
2022/12/28 08:55:06;;;;;;;53.00;23.17;;;;;;;;;;5073803;28;20067;-70
2022/12/28 08:57:32;;;;;;;56.75;23.20;;;;;;;;;;5073564;28;20068;-69
2022/12/28 08:59:57;;;;;;;51.25;22.10;;;;;;;;;;5073528;28;20033;-70
2022/12/28 09:02:23;;;;;;;39.65;18.00;;;;;;;;;;5073497;28;20043;-69
2022/12/28 09:04:48;;;;;;;36.28;18.42;;;;;;;;;;5073562;28;20089;-69
2022/12/28 09:07:13;;;;;;;38.63;17.90;;;;;;;;;;5016514;28;1143134;-69
2022/12/28 09:09:38;;;;;;;36.55;17.77;;;;;;;;;;5074204;28;20127;-69
2022/12/28 09:12:06;;;;;;;32.45;16.75;;;;;;;;;;5074223;28;20040;-69
2022/12/28 09:14:31;;;;;;;37.20;17.42;;;;;;;;;;5074127;28;20084;-69
2022/12/28 09:16:56;;;;;;;31.95;16.75;;;;;;;;;;5074097;28;20444;-69
2022/12/28 09:19:22;;;;;;;33.22;16.98;;;;;;;;;;5073974;28;20032;-69
2022/12/28 09:21:51;;;;;;;39.13;17.77;;;;;;;;;;5073840;28;20380;-69
2022/12/28 09:24:16;;;;;;;38.22;19.40;;;;;;;;;;5073840;28;20555;-69
2022/12/28 09:26:42;;;;;;;40.60;19.50;;;;;;;;;;5074076;28;20052;-69
2022/12/28 09:29:09;;;;;;;32.40;17.23;;;;;;;;;;5056028;28;20388;-69
2022/12/28 09:31:35;;;;;;;33.75;17.30;;;;;;;;;;5073872;28;20052;-69
2022/12/28 09:34:02;;;;;;;29.20;16.52;;;;;;;;;;5073928;28;20033;-69
2022/12/28 09:36:32;;;;;;;22.98;14.38;;;;;;;;;;5073773;28;20403;-69
2022/12/28 09:38:58;;;;;;;23.40;13.05;;;;;;;;;;5055885;28;20048;-69
2022/12/28 09:41:23;;;;;;;19.73;12.10;;;;;;;;;;5073634;28;20044;-69
2022/12/28 09:43:51;;;;;;;18.30;11.20;;;;;;;;;;5073797;28;20032;-69
2022/12/28 09:46:19;;;;;;;18.50;11.13;;;;;;;;;;5073452;28;20547;-69
2022/12/28 09:48:47;;;;;;;19.33;12.38;;;;;;;;;;5073862;28;20479;-69
2022/12/28 09:51:12;;;;;;;27.85;17.52;;;;;;;;;;5073602;28;20046;-69
2022/12/28 09:53:37;;;;;;;34.63;19.83;;;;;;;;;;5073744;28;20091;-69
2022/12/28 09:56:09;;;;;;;42.22;22.30;;;;;;;;;;5073796;28;20036;-69
2022/12/28 09:58:36;;;;;;;38.28;19.77;;;;;;;;;;5073622;28;20504;-69
2022/12/28 10:01:02;;;;;;;30.70;16.65;;;;;;;;;;5073402;28;20135;-69
2022/12/28 10:03:46;;;;;;;28.70;16.30;;;;;;;;;;5073454;28;20039;-69
2022/12/28 10:06:14;;;;;;;21.88;13.07;;;;;;;;;;5073348;28;20051;-69
2022/12/28 10:08:41;;;;;;;19.50;12.00;;;;;;;;;;5073447;28;20040;-69
2022/12/28 10:11:06;;;;;;;20.73;11.68;;;;;;;;;;5073411;28;20036;-69
2022/12/28 10:13:34;;;;;;;15.75;10.10;;;;;;;;;;5073549;28;20043;-69
2022/12/28 10:16:00;;;;;;;16.73;9.68;;;;;;;;;;5073671;28;20041;-69
2022/12/28 10:18:26;;;;;;;17.13;9.85;;;;;;;;;;5073334;28;20029;-69
2022/12/28 10:20:51;;;;;;;14.75;9.35;;;;;;;;;;5073218;28;20063;-69
2022/12/28 10:23:22;;;;;;;18.80;9.77;;;;;;;;;;5073298;28;20412;-69
2022/12/28 10:25:49;;;;;;;13.20;8.20;;;;;;;;;;5073327;28;20037;-69
2022/12/28 10:28:15;;;;;;;13.23;8.55;;;;;;;;;;5073276;28;20040;-69
2022/12/28 10:30:45;;;;;;;12.55;8.07;;;;;;;;;;5055395;28;20090;-69
2022/12/28 10:33:14;;;;;;;13.18;7.68;;;;;;;;;;5073266;28;20068;-69
2022/12/28 10:35:41;;;;;;;14.13;8.75;;;;;;;;;;5073280;28;20410;-69
2022/12/28 10:38:19;;;;;;;12.90;8.60;;;;;;;;;;5073102;28;20032;-69
2022/12/28 10:40:44;;;;;;;13.73;9.35;;;;;;;;;;5073095;28;20048;-69
2022/12/28 10:43:17;;;;;;;14.07;9.05;;;;;;;;;;5073097;28;20021;-69
2022/12/28 10:45:47;;;;;;;16.02;8.32;;;;;;;;;;5073054;28;20078;-69
2022/12/28 10:48:21;;;;;;;13.98;8.00;;;;;;;;;;5073123;28;20067;-69
2022/12/28 10:50:49;;;;;;;14.75;9.63;;;;;;;;;;5073053;28;20472;-69
2022/12/28 10:53:21;;;;;;;22.60;12.80;;;;;;;;;;5073111;28;20527;-69
2022/12/28 10:55:46;;;;;;;30.23;16.70;;;;;;;;;;5073003;28;20098;-69
2022/12/28 10:58:18;;;;;;;39.65;20.75;;;;;;;;;;5072982;28;20032;-69
2022/12/28 11:00:51;;;;;;;32.88;18.58;;;;;;;;;;5076596;28;20080;-69
2022/12/28 11:03:17;;;;;;;31.83;16.65;;;;;;;;;;5076674;28;20472;-69
2022/12/28 11:05:43;;;;;;;21.13;10.90;;;;;;;;;;5076424;28;20037;-69
2022/12/28 11:08:10;;;;;;;12.45;7.15;;;;;;;;;;5076562;28;20472;-69
2022/12/28 11:10:36;;;;;;;9.80;6.28;;;;;;;;;;5076526;28;20124;-69
2022/12/28 11:13:06;;;;;;;11.88;6.68;;;;;;;;;;5076577;28;20079;-69
2022/12/28 11:15:32;;;;;;;10.32;6.93;;;;;;;;;;5076437;28;20430;-69
2022/12/28 11:18:06;;;;;;;12.73;6.88;;;;;;;;;;5076400;28;20178;-69
2022/12/28 11:20:32;;;;;;;9.30;6.47;;;;;;;;;;5076324;28;20040;-69
2022/12/28 11:22:58;;;;;;;9.82;6.53;;;;;;;;;;5076266;28;20033;-69
2022/12/28 11:25:27;;;;;;;10.40;6.93;;;;;;;;;;5076229;28;20549;-69
2022/12/28 11:27:53;;;;;;;13.35;7.18;;;;;;;;;;5076233;28;20043;-69
2022/12/28 11:30:20;;;;;;;9.32;6.53;;;;;;;;;;5076404;28;20036;-69
2022/12/28 11:32:48;;;;;;;10.90;7.68;;;;;;;;;;5076294;28;20040;-69
2022/12/28 11:35:19;;;;;;;11.82;8.18;;;;;;;;;;5076095;28;20029;-69
2022/12/28 11:37:44;;;;;;;;;;;;;;;;;;5076659;28;20047;-69
2022/12/28 11:40:29;;;;;;;11.20;7.27;;;;;;;;;;5075910;28;19912;-69
2022/12/28 11:42:55;;;;;;;10.77;6.72;;;;;;;;;;5075800;28;20036;-69
2022/12/28 11:45:39;;;;;;;13.32;7.55;;;;;;;;;;5075872;28;20028;-69
2022/12/28 11:48:24;;;;;;;11.05;7.15;;;;;;;;;;5075979;28;20102;-69
2022/12/28 11:50:51;;;;;;;10.77;6.68;;;;;;;;;;5075544;28;20044;-69
2022/12/28 11:53:42;;;;;;;12.48;6.82;;;;;;;;;;5075929;28;20029;-69
2022/12/28 11:56:10;;;;;;;9.40;6.53;;;;;;;;;;5075126;28;20049;-69
2022/12/28 11:58:38;;;;;;;10.32;6.30;;;;;;;;;;5057699;28;20036;-69
2022/12/28 12:01:04;;;;;;;10.70;6.50;;;;;;;;;;5075592;28;20029;-69
2022/12/28 12:03:47;;;;;;;10.07;6.72;;;;;;;;;;5075589;28;20495;-69
2022/12/28 12:06:13;;;;;;;9.68;6.43;;;;;;;;;;5075346;28;20087;-70
2022/12/28 12:08:39;;;;;;;9.25;5.93;;;;;;;;;;5075543;28;20064;-70
2022/12/28 12:11:24;;;;;;;15.50;6.13;;;;;;;;;;5075254;28;20079;-70
2022/12/28 12:13:49;;;;;;;9.13;5.60;;;;;;;;;;5057552;28;20049;-70
2022/12/28 12:16:21;;;;;;;9.63;5.68;;;;;;;;;;5075371;28;20048;-70
2022/12/28 12:18:52;;;;;;;9.95;5.43;;;;;;;;;;5057319;28;20083;-70
2022/12/28 12:21:17;;;;;;;;;;;;;;;;;;5075606;28;20112;-70
2022/12/28 12:23:54;;;;;;;7.87;5.13;;;;;;;;;;5075153;28;19962;-70
2022/12/28 12:26:19;;;;;;;6.82;4.60;;;;;;;;;;5075193;28;20274;-70
2022/12/28 12:28:50;;;;;;;9.18;6.75;;;;;;;;;;5075100;28;20048;-70
2022/12/28 12:31:21;;;;;;;12.93;9.20;;;;;;;;;;5075104;28;20037;-70
2022/12/28 12:33:50;;;;;;;12.98;8.77;;;;;;;;;;5057011;28;20115;-70
2022/12/28 12:36:15;;;;;;;17.25;12.07;;;;;;;;;;5074844;28;20025;-70
2022/12/28 12:38:59;;;;;;;13.85;9.25;;;;;;;;;;5074932;28;20064;-70
2022/12/28 12:41:43;;;;;;;13.40;9.02;;;;;;;;;;5074826;28;20056;-70
2022/12/28 12:44:20;;;;;;;6.15;4.38;;;;;;;;;;5074845;28;20115;-70
2022/12/28 12:47:05;;;;;;;6.18;4.82;;;;;;;;;;5057102;28;20456;-70
2022/12/28 12:49:39;;;;;;;7.55;5.72;;;;;;;;;;5074674;28;20044;-70
2022/12/28 12:52:13;;;;;;;8.13;4.68;;;;;;;;;;5074615;28;20079;-70
2022/12/28 12:54:57;;;;;;;7.38;4.22;;;;;;;;;;5074589;28;20043;-70
2022/12/28 12:57:49;;;;;;;6.80;4.20;;;;;;;;;;5074639;28;20465;-70
2022/12/28 13:00:16;;;;;;;7.07;4.63;;;;;;;;;;5074478;28;20041;-69
2022/12/28 13:02:58;;;;;;;6.63;3.70;;;;;;;;;;5074522;28;20056;-70
2022/12/28 13:05:25;;;;;;;6.30;4.10;;;;;;;;;;5074519;28;20071;-70
2022/12/28 13:07:54;;;;;;;6.13;3.80;;;;;;;;;;5056542;28;20045;-70
2022/12/28 13:10:25;;;;;;;6.90;4.30;;;;;;;;;;5074350;28;20036;-72
2022/12/28 13:12:53;;;;;;;8.38;4.40;;;;;;;;;;5074232;28;20043;-72
2022/12/28 13:15:18;;;;;;;5.03;3.40;;;;;;;;;;5074207;28;20465;-72
2022/12/28 13:18:03;;;;;;;4.40;3.72;;;;;;;;;;5074119;28;20040;-72
2022/12/28 13:20:29;;;;;;;3.80;2.92;;;;;;;;;;5074267;28;20064;-72
2022/12/28 13:22:55;;;;;;;4.55;3.08;;;;;;;;;;5073630;28;20405;-72
2022/12/28 13:25:27;;;;;;;5.47;4.30;;;;;;;;;;5073983;28;20045;-72
2022/12/28 13:27:53;;;;;;;5.82;4.35;;;;;;;;;;5073968;28;20037;-72
2022/12/28 13:30:19;;;;;;;5.47;3.72;;;;;;;;;;5073915;28;20127;-72
2022/12/28 13:32:55;;;;;;;5.90;3.13;;;;;;;;;;5073875;28;20032;-72
2022/12/28 13:35:21;;;;;;;6.50;4.47;;;;;;;;;;5073996;28;20048;-72
2022/12/28 13:38:03;;;;;;;5.63;3.47;;;;;;;;;;5073770;28;20499;-72
2022/12/28 13:40:29;;;;;;;5.45;3.58;;;;;;;;;;5073847;28;20036;-72
2022/12/28 13:43:02;;;;;;;6.93;3.42;;;;;;;;;;5073783;28;20036;-72
2022/12/28 13:45:27;;;;;;;5.47;3.35;;;;;;;;;;5073754;28;20036;-72
2022/12/28 13:47:53;;;;;;;5.88;3.95;;;;;;;;;;5073646;28;20012;-72
2022/12/28 13:50:30;;;;;;;6.10;3.42;;;;;;;;;;5073674;28;20049;-72
2022/12/28 13:52:58;;;;;;;5.20;3.83;;;;;;;;;;5073386;28;20041;-72
2022/12/28 13:55:25;;;;;;;2.33;1.60;;;;;;;;;;5073393;28;20103;-72
2022/12/28 13:57:53;;;;;;;5.40;3.17;;;;;;;;;;5073777;28;20045;-72
2022/12/28 14:00:19;;;;;;;3.58;2.58;;;;;;;;;;5073817;28;20497;-72
2022/12/28 14:02:46;;;;;;;5.70;2.95;;;;;;;;;;5073614;28;20123;-72
2022/12/28 14:05:16;;;;;;;7.05;3.90;;;;;;;;;;5055855;28;20120;-72
2022/12/28 14:07:41;;;;;;;4.85;3.53;;;;;;;;;;5073509;28;20437;-72
2022/12/28 14:10:07;;;;;;;5.57;3.53;;;;;;;;;;5055872;28;20075;-72
2022/12/28 14:12:32;;;;;;;4.75;3.15;;;;;;;;;;5073951;28;20079;-72
2022/12/28 14:14:58;;;;;;;4.28;3.28;;;;;;;;;;5074019;28;20056;-72
2022/12/28 14:17:24;;;;;;;4.22;3.33;;;;;;;;;;5074086;28;20047;-72
2022/12/28 14:19:51;;;;;;;4.75;3.40;;;;;;;;;;5056042;28;20039;-72
2022/12/28 14:22:27;;;;;;;6.22;3.83;;;;;;;;;;5055554;28;20066;-72
2022/12/28 14:24:58;;;;;;;4.50;3.78;;;;;;;;;;5073334;28;20453;-72
2022/12/28 14:27:23;;;;;;;8.73;4.57;;;;;;;;;;5073065;28;20082;-72
2022/12/28 14:29:49;;;;;;;7.70;4.75;;;;;;;;;;5072853;28;20123;-72
2022/12/28 14:32:15;;;;;;;10.50;6.40;;;;;;;;;;5073165;28;20047;-67
2022/12/28 14:34:40;;;;;;;12.18;8.30;;;;;;;;;;5075308;28;20040;-70
2022/12/28 14:37:08;;;;;;;9.82;6.90;;;;;;;;;;5077681;28;20041;-70
2022/12/28 14:39:36;;;;;;;9.43;5.88;;;;;;;;;;5077184;28;20522;-70
2022/12/28 14:42:03;;;;;;;12.63;6.40;;;;;;;;;;5076203;28;20502;-69
2022/12/28 14:44:39;;;;;;;12.38;6.45;;;;;;;;;;5076008;28;20040;-70
2022/12/28 14:47:22;;;;;;;13.80;7.47;;;;;;;;;;5076037;28;20102;-69
2022/12/28 14:49:48;;;;;;;8.80;5.57;;;;;;;;;;5076162;28;20085;-70
2022/12/28 14:52:15;;;;;;;10.63;5.15;;;;;;;;;;5076161;28;20434;-70
2022/12/28 14:54:43;;;;;;;14.93;7.55;;;;;;;;;;5074962;28;20041;-70
2022/12/28 14:57:20;;;;;;;14.48;7.35;;;;;;;;;;5075186;28;20036;-70
2022/12/28 14:59:48;;;;;;;13.52;6.68;;;;;;;;;;5075141;28;20040;-69
2022/12/28 15:02:32;;;;;;;10.70;6.57;;;;;;;;;;5075318;28;20024;-70